createdAt,value
2022-08-05T00:04:19.560Z,23.09
2022-08-05T00:09:21.070Z,23.31
2022-08-05T00:14:27.632Z,23.33
2022-08-05T00:19:33.459Z,23.48
2022-08-05T00:24:42.800Z,23.23
2022-08-05T00:29:44.694Z,22.97
2022-08-05T00:35:05.245Z,23.29
2022-08-05T00:40:09.463Z,23.13
2022-08-05T00:45:11.771Z,22.82
2022-08-05T00:50:14.968Z,22.97
2022-08-05T00:55:16.656Z,23.10
2022-08-05T01:00:21.900Z,22.79
2022-08-05T01:05:24.795Z,22.80
2022-08-05T01:10:35.329Z,22.89
2022-08-05T01:15:47.865Z,22.80
2022-08-05T01:21:07.689Z,22.43
2022-08-05T01:26:26.492Z,22.51
2022-08-05T01:31:44.655Z,22.81
2022-08-05T01:37:02.224Z,22.76
2022-08-05T01:42:06.529Z,22.82
2022-08-05T01:47:15.093Z,22.58
2022-08-05T01:52:19.162Z,22.78
2022-08-05T01:58:10.034Z,22.69
2022-08-05T02:03:04.004Z,22.72
2022-08-05T02:08:05.925Z,22.62
2022-08-05T02:13:53.281Z,22.32
2022-08-05T02:19:07.391Z,22.51
2022-08-05T02:24:14.639Z,22.54
2022-08-05T02:29:25.990Z,22.38
2022-08-05T02:34:46.118Z,22.41
2022-08-05T02:39:57.320Z,22.26
2022-08-05T02:45:00.226Z,22.55
2022-08-05T02:50:05.128Z,22.45
2022-08-05T02:55:10.949Z,22.47
2022-08-05T03:00:13.816Z,22.35
2022-08-05T03:05:15.980Z,22.41
2022-08-05T03:10:21.949Z,22.61
2022-08-05T03:15:26.435Z,22.57
2022-08-05T03:20:29.701Z,22.46
2022-08-05T03:26:03.826Z,22.45
2022-08-05T03:30:55.868Z,22.42
2022-08-05T03:35:58.613Z,22.47
2022-08-05T03:41:00.266Z,22.47
2022-08-05T03:46:10.308Z,22.05
2022-08-05T03:52:37.589Z,21.70
2022-08-05T03:56:43.431Z,22.01
2022-08-05T04:01:50.784Z,22.17
2022-08-05T04:06:54.104Z,22.05
2022-08-05T04:11:57.744Z,22.04
2022-08-05T04:17:00.257Z,22.12
2022-08-05T04:22:08.433Z,22.01
2022-08-05T04:27:13.448Z,21.83
2022-08-05T04:32:15.660Z,21.85
2022-08-05T04:38:00.608Z,22.00
2022-08-05T04:42:54.061Z,21.73
2022-08-05T04:48:03.520Z,21.98
2022-08-05T04:53:05.583Z,21.94
2022-08-05T04:58:15.835Z,21.79
2022-08-05T05:03:23.095Z,21.41
2022-08-05T05:08:29.923Z,21.52
2022-08-05T05:13:32.201Z,21.74
2022-08-05T05:19:09.021Z,21.83
2022-08-05T05:24:09.046Z,21.81
2022-08-05T05:29:14.493Z,22.00
2022-08-05T05:34:19.031Z,21.85
2022-08-05T05:39:45.744Z,21.78
2022-08-05T05:44:47.193Z,22.01
2022-08-05T05:49:52.568Z,21.88
2022-08-05T05:55:07.381Z,22.00
2022-08-05T06:00:19.371Z,22.11
2022-08-05T06:05:20.966Z,21.69
2022-08-05T06:10:22.519Z,22.08
2022-08-05T06:15:25.439Z,22.00
2022-08-05T06:20:47.894Z,22.22
2022-08-05T06:26:12.943Z,22.22
2022-08-05T06:31:17.820Z,22.32
2022-08-05T06:36:25.950Z,22.20
2022-08-05T06:41:27.586Z,22.31
2022-08-05T06:46:29.853Z,22.42
2022-08-05T06:51:31.944Z,23.22
2022-08-05T06:56:34.237Z,23.88
2022-08-05T07:01:36.674Z,23.31
2022-08-05T07:06:38.371Z,23.46
2022-08-05T07:11:40.106Z,23.40
2022-08-05T07:17:59.526Z,23.64
2022-08-05T07:22:03.185Z,23.52
2022-08-05T07:27:08.862Z,23.92
2022-08-05T07:32:10.455Z,23.39
2022-08-05T07:37:11.997Z,23.57
2022-08-05T07:42:16.272Z,23.70
2022-08-05T07:47:17.829Z,23.14
2022-08-05T07:52:20.403Z,23.60
2022-08-05T07:57:41.750Z,23.58
2022-08-05T08:03:14.807Z,23.89
2022-08-05T08:08:12.444Z,23.81
2022-08-05T08:13:14.015Z,23.83
2022-08-05T08:18:23.642Z,23.91
2022-08-05T08:24:03.403Z,23.98
2022-08-05T08:28:59.023Z,24.07
2022-08-05T08:34:03.875Z,24.31
2022-08-05T08:39:14.872Z,24.20
2022-08-05T08:45:22.625Z,24.44
2022-08-05T08:50:07.798Z,24.47
2022-08-05T08:55:13.459Z,24.47
2022-08-05T09:00:20.957Z,24.42
2022-08-05T09:05:38.913Z,24.23
2022-08-05T09:10:46.731Z,23.97
2022-08-05T09:15:48.590Z,24.30
2022-08-05T09:20:50.030Z,24.67
2022-08-05T09:26:08.575Z,24.79
2022-08-05T09:32:39.676Z,25.00
2022-08-05T09:36:55.301Z,24.79
2022-08-05T09:42:07.740Z,24.55
2022-08-05T09:47:16.342Z,24.86
2022-08-05T09:52:35.190Z,24.71
2022-08-05T09:57:39.445Z,24.59
2022-08-05T10:02:48.886Z,25.14
2022-08-05T10:08:36.551Z,25.43
2022-08-05T10:13:44.156Z,25.37
2022-08-05T10:18:49.835Z,25.48
2022-08-05T10:23:59.824Z,25.85
2022-08-05T10:29:02.891Z,26.00
2022-08-05T10:34:06.934Z,25.46
2022-08-05T10:39:24.425Z,24.79
2022-08-05T10:44:43.998Z,24.66
2022-08-05T10:50:31.629Z,24.10
2022-08-05T10:55:29.320Z,23.99
2022-08-05T11:00:35.123Z,24.10
2022-08-05T11:06:15.127Z,23.56
2022-08-05T11:11:44.356Z,24.67
2022-08-05T11:17:58.034Z,25.04
2022-08-05T11:22:58.035Z,25.54
2022-08-05T11:28:09.344Z,25.57
2022-08-05T11:33:43.830Z,25.47
2022-08-05T11:38:51.851Z,25.46
2022-08-05T11:44:06.730Z,25.84
2022-08-05T11:49:15.773Z,26.35
2022-08-05T11:54:34.488Z,26.32
2022-08-05T11:59:41.230Z,26.15
2022-08-05T12:04:59.322Z,25.94
2022-08-05T12:10:06.633Z,25.49
2022-08-05T12:15:33.255Z,24.39
2022-08-05T12:20:40.658Z,24.14
2022-08-05T12:25:53.657Z,24.19
2022-08-05T12:31:02.389Z,24.45
2022-08-05T12:36:07.049Z,25.29
2022-08-05T12:41:13.157Z,25.29
2022-08-05T12:46:29.525Z,25.12
2022-08-05T12:52:14.330Z,24.26
2022-08-05T12:56:54.650Z,24.50
2022-08-05T13:02:27.291Z,23.30
2022-08-05T13:07:57.337Z,23.23
2022-08-05T13:12:57.985Z,22.94
2022-08-05T13:18:00.041Z,22.30
2022-08-05T13:23:02.478Z,21.77
2022-08-05T13:28:10.451Z,22.24
2022-08-05T13:33:14.314Z,22.48
2022-08-05T13:38:36.245Z,22.54
2022-08-05T13:43:54.754Z,21.98
2022-08-05T13:49:00.955Z,22.29
2022-08-05T13:54:02.823Z,22.27
2022-08-05T13:59:06.052Z,21.79
2022-08-05T14:04:20.674Z,22.64
2022-08-05T14:09:22.078Z,22.71
2022-08-05T14:14:29.613Z,23.11
2022-08-05T14:19:54.579Z,23.30
2022-08-05T14:24:56.530Z,23.28
2022-08-05T14:29:58.603Z,23.20
2022-08-05T14:35:00.563Z,23.54
2022-08-05T14:40:02.523Z,23.32
2022-08-05T14:45:05.017Z,23.69
2022-08-05T14:50:17.722Z,23.18
2022-08-05T14:55:20.101Z,23.33
2022-08-05T15:00:21.624Z,23.48
2022-08-05T15:06:08.410Z,23.61
2022-08-05T15:10:51.666Z,23.49
2022-08-05T15:15:56.458Z,23.68
2022-08-05T15:20:58.039Z,23.39
2022-08-05T15:26:09.277Z,24.10
2022-08-05T15:31:11.266Z,23.98
2022-08-05T15:36:17.400Z,23.98
2022-08-05T15:41:56.387Z,23.90
2022-08-05T15:46:47.109Z,23.79
2022-08-05T15:52:10.383Z,23.86
2022-08-05T15:57:13.899Z,23.79
2022-08-05T16:02:27.785Z,24.13
2022-08-05T16:07:30.467Z,23.99
2022-08-05T16:12:31.902Z,23.78
2022-08-05T16:17:33.469Z,24.14
2022-08-05T16:22:34.941Z,24.12
2022-08-05T16:28:00.413Z,24.06
2022-08-05T16:32:59.604Z,24.00
2022-08-05T16:38:16.174Z,23.89
2022-08-05T16:43:27.868Z,23.79
2022-08-05T16:48:33.286Z,23.71
2022-08-05T16:54:03.004Z,23.59
2022-08-05T16:59:08.304Z,23.50
2022-08-05T17:04:10.003Z,23.77
2022-08-05T17:09:11.618Z,23.72
2022-08-05T17:14:34.150Z,23.53
2022-08-05T17:19:36.829Z,23.52
2022-08-05T17:24:40.597Z,23.52
2022-08-05T17:29:52.751Z,23.42
2022-08-05T17:35:02.317Z,23.13
2022-08-05T17:40:10.799Z,23.12
2022-08-05T17:45:18.187Z,22.86
2022-08-05T17:50:29.966Z,22.69
2022-08-05T17:55:34.355Z,22.75
2022-08-05T18:00:44.990Z,22.67
2022-08-05T18:05:52.897Z,22.43
2022-08-05T18:10:55.028Z,22.40
2022-08-05T18:15:56.567Z,22.28
2022-08-05T18:20:58.588Z,22.30
2022-08-05T18:26:04.699Z,22.19
2022-08-05T18:31:06.816Z,22.07
2022-08-05T18:36:15.433Z,22.07
2022-08-05T18:41:55.435Z,21.84
2022-08-05T18:46:38.667Z,21.56
2022-08-05T18:52:05.455Z,21.27
2022-08-05T18:57:04.256Z,20.91
2022-08-05T19:02:05.932Z,21.02
2022-08-05T19:07:29.801Z,20.88
2022-08-05T19:12:47.019Z,21.00
2022-08-05T19:18:08.166Z,20.85
2022-08-05T19:23:22.378Z,20.83
2022-08-05T19:28:32.922Z,20.74
2022-08-05T19:33:35.398Z,20.81
2022-08-05T19:38:38.044Z,20.94
2022-08-05T19:44:04.801Z,20.83
2022-08-05T19:49:03.026Z,21.06
2022-08-05T19:54:06.772Z,20.99
2022-08-05T19:59:54.745Z,20.73
2022-08-05T20:04:46.455Z,20.58
2022-08-05T20:09:54.476Z,20.54
2022-08-05T20:14:56.721Z,20.29
2022-08-05T20:19:58.153Z,20.19
2022-08-05T20:24:59.626Z,20.19
2022-08-05T20:30:01.043Z,19.98
2022-08-05T20:35:03.561Z,19.92
2022-08-05T20:40:05.722Z,19.68
2022-08-05T20:45:08.754Z,19.57
2022-08-05T20:50:10.457Z,19.37
2022-08-05T20:55:56.329Z,19.33
2022-08-05T21:00:44.299Z,19.04
2022-08-05T21:05:55.595Z,19.18
2022-08-05T21:11:00.515Z,18.87
2022-08-05T21:16:01.969Z,18.81
2022-08-05T21:21:05.233Z,18.84
2022-08-05T21:26:12.169Z,18.95
2022-08-05T21:31:13.952Z,18.67
2022-08-05T21:36:27.616Z,18.65
2022-08-05T21:41:33.804Z,18.61
2022-08-05T21:46:35.820Z,18.45
2022-08-05T21:52:22.433Z,18.59
2022-08-05T21:57:29.831Z,18.58
2022-08-05T22:02:21.195Z,18.36
2022-08-05T22:07:39.300Z,18.45
2022-08-05T22:12:44.701Z,18.49
2022-08-05T22:17:48.517Z,18.33
2022-08-05T22:22:57.974Z,18.01
2022-08-05T22:28:10.225Z,17.97
2022-08-05T22:33:15.465Z,17.75
2022-08-05T22:38:19.029Z,17.83
2022-08-05T22:43:37.451Z,17.65
2022-08-05T22:48:39.497Z,17.32
2022-08-05T22:53:42.391Z,17.42
2022-08-05T22:58:43.980Z,17.23
2022-08-05T23:03:58.872Z,17.09
2022-08-05T23:09:28.059Z,17.16
2022-08-05T23:14:32.288Z,17.09
2022-08-05T23:19:38.596Z,16.91
2022-08-05T23:24:51.243Z,16.82
2022-08-05T23:29:52.791Z,16.84
2022-08-05T23:34:54.263Z,16.65
2022-08-05T23:39:55.724Z,16.70
2022-08-05T23:44:57.358Z,16.52
2022-08-05T23:49:59.024Z,16.61
2022-08-05T23:55:05.468Z,16.57
